Time;durP1;ratioP1;P1;durP2;ratioP2;P2;SDS_P1;SDS_P2;PMS_P1;PMS_P2;Temp;Humidity;BMP_temperature;BMP_pressure;BME280_temperature;BME280_humidity;BME280_pressure;Samples;Min_cycle;Max_cycle;Signal;HPM_P1;HPM_P2
2022/06/17 00:00:15;;;;;;;10.63;6.97;;;17.20;99.90;;;;;;5007863;28;20045;-72
2022/06/17 00:02:41;;;;;;;11.88;7.95;;;17.10;99.90;;;;;;5021615;28;20132;-72
2022/06/17 00:05:08;;;;;;;11.30;7.68;;;17.10;99.90;;;;;;5032230;28;20080;-72
2022/06/17 00:07:34;;;;;;;10.18;7.45;;;17.20;99.90;;;;;;5011479;28;20099;-72
2022/06/17 00:10:00;;;;;;;11.68;7.90;;;17.20;99.90;;;;;;5027216;28;20050;-72
2022/06/17 00:12:26;;;;;;;11.15;7.65;;;17.10;99.90;;;;;;5027736;28;20045;-72
2022/06/17 00:17:36;;;;;;;10.90;8.32;;;17.40;99.90;;;;;;5027957;28;20041;-72
2022/06/17 00:20:05;;;;;;;12.05;8.57;;;17.00;99.90;;;;;;5034139;28;20103;-72
2022/06/17 00:22:31;;;;;;;14.82;9.23;;;16.90;99.90;;;;;;5031541;28;20037;-72
2022/06/17 00:24:56;;;;;;;12.23;8.70;;;16.80;99.90;;;;;;5031163;28;20049;-72
2022/06/17 00:27:22;;;;;;;11.55;9.15;;;16.80;99.90;;;;;;5009488;28;20325;-72
2022/06/17 00:29:48;;;;;;;12.32;9.20;;;16.80;99.90;;;;;;5022295;28;20547;-72
2022/06/17 00:32:14;;;;;;;14.02;9.80;;;16.80;99.90;;;;;;5030462;28;20091;-72
2022/06/17 00:34:39;;;;;;;12.23;9.18;;;16.80;99.90;;;;;;5012800;28;20045;-71
2022/06/17 00:37:07;;;;;;;11.30;9.20;;;16.80;99.90;;;;;;5029836;28;20087;-71
2022/06/17 00:39:35;;;;;;;11.32;8.77;;;16.80;99.90;;;;;;5030163;28;20055;-71
2022/06/17 00:42:27;;;;;;;12.82;8.52;;;16.90;99.90;;;;;;5031076;28;20068;-72
2022/06/17 00:45:03;;;;;;;13.95;8.95;;;16.80;99.90;;;;;;5006983;28;20064;-71
2022/06/17 00:47:38;;;;;;;11.43;8.88;;;16.80;99.90;;;;;;5012737;28;20057;-71
2022/06/17 00:50:13;;;;;;;12.52;9.00;;;16.80;99.90;;;;;;5030151;28;20423;-71
2022/06/17 00:52:43;;;;;;;;;;;16.70;99.90;;;;;;5030158;28;20045;-71
2022/06/17 00:55:20;;;;;;;12.15;9.63;;;16.60;99.90;;;;;;5030439;28;19921;-71
2022/06/17 00:57:46;;;;;;;12.55;9.02;;;16.50;99.90;;;;;;5029266;28;20072;-70
2022/06/17 01:00:18;;;;;;;14.05;9.23;;;16.50;99.90;;;;;;5030609;28;20077;-71
2022/06/17 01:02:51;;;;;;;13.02;9.55;;;16.60;99.90;;;;;;5029475;28;20081;-72
2022/06/17 01:05:25;;;;;;;13.55;9.18;;;16.60;99.90;;;;;;5031612;28;20052;-72
2022/06/17 01:07:59;;;;;;;15.23;9.00;;;16.60;99.90;;;;;;5029623;28;20141;-72
2022/06/17 01:10:26;;;;;;;13.98;8.57;;;16.60;99.90;;;;;;5029439;28;20057;-72
2022/06/17 01:12:59;;;;;;;11.80;9.25;;;16.60;99.90;;;;;;5030179;28;20449;-71
2022/06/17 01:15:28;;;;;;;14.25;9.30;;;16.90;99.90;;;;;;5029578;28;20141;-72
2022/06/17 01:17:55;;;;;;;12.10;8.65;;;16.50;99.90;;;;;;5028929;28;20045;-71
2022/06/17 01:20:22;;;;;;;14.10;8.73;;;16.50;99.90;;;;;;5017471;28;20045;-71
2022/06/17 01:22:51;;;;;;;10.30;8.07;;;16.40;99.90;;;;;;5028821;28;20128;-71
2022/06/17 01:25:19;;;;;;;13.80;7.97;;;16.40;99.90;;;;;;5029353;28;20048;-71
2022/06/17 01:27:51;;;;;;;12.00;8.35;;;16.40;99.90;;;;;;5029678;28;20453;-72
2022/06/17 01:30:20;;;;;;;11.45;8.07;;;16.40;99.90;;;;;;5028978;28;20045;-72
2022/06/17 01:33:00;;;;;;;13.23;8.50;;;16.40;99.90;;;;;;5010636;28;20054;-71
2022/06/17 01:35:34;;;;;;;11.27;7.43;;;16.40;99.90;;;;;;5029915;28;20099;-71
2022/06/17 01:38:00;;;;;;;12.55;7.45;;;16.30;99.90;;;;;;5029016;28;20103;-71
2022/06/17 01:40:28;;;;;;;11.45;7.82;;;16.50;99.90;;;;;;5028776;28;20053;-71
2022/06/17 01:42:55;;;;;;;11.52;8.00;;;16.40;99.90;;;;;;5029492;28;20046;-71
2022/06/17 01:45:21;;;;;;;11.90;7.70;;;17.00;99.90;;;;;;5029262;28;20069;-71
2022/06/17 01:47:47;;;;;;;10.73;7.05;;;16.30;99.90;;;;;;5028461;28;20057;-71
2022/06/17 01:50:19;;;;;;;11.68;7.70;;;16.70;99.90;;;;;;5029589;28;20049;-71
2022/06/17 01:53:08;;;;;;;12.35;8.07;;;16.40;99.90;;;;;;5028504;28;20140;-71
2022/06/17 01:55:48;;;;;;;11.75;7.65;;;16.30;99.90;;;;;;4995437;28;20056;-71
2022/06/17 01:58:23;;;;;;;10.15;7.45;;;16.30;99.90;;;;;;5028792;28;20195;-70
2022/06/17 02:00:49;;;;;;;8.70;7.20;;;16.30;99.90;;;;;;5024767;28;20041;-72
2022/06/17 02:03:17;;;;;;;9.80;7.15;;;16.30;99.90;;;;;;5028272;28;20099;-71
2022/06/17 02:05:47;;;;;;;10.60;7.53;;;16.30;99.90;;;;;;5029077;28;20049;-72
2022/06/17 02:08:13;;;;;;;10.40;7.30;;;16.30;99.90;;;;;;5027760;28;20447;-71
2022/06/17 02:10:42;;;;;;;10.57;7.60;;;16.70;99.90;;;;;;5027831;28;20079;-70
2022/06/17 02:13:09;;;;;;;10.10;7.53;;;16.30;99.90;;;;;;5029226;28;20137;-71
2022/06/17 02:15:36;;;;;;;11.60;7.55;;;16.30;99.90;;;;;;5027223;28;20454;-70
2022/06/17 02:18:05;;;;;;;10.25;7.70;;;16.30;99.90;;;;;;5028796;28;20091;-71
2022/06/17 02:20:31;;;;;;;8.88;6.97;;;16.30;99.90;;;;;;5028147;28;20133;-71
2022/06/17 02:22:57;;;;;;;11.13;6.80;;;16.40;99.90;;;;;;5028157;28;20160;-73
2022/06/17 02:25:29;;;;;;;10.10;6.90;;;16.30;99.90;;;;;;5028071;28;20053;-71
2022/06/17 02:27:59;;;;;;;10.50;6.90;;;16.60;99.90;;;;;;5028699;28;20046;-71
2022/06/17 02:30:26;;;;;;;11.52;6.57;;;16.30;99.90;;;;;;5028020;28;20081;-71
2022/06/17 02:32:55;;;;;;;12.75;6.93;;;16.30;99.90;;;;;;5028194;28;20037;-71
2022/06/17 02:35:34;;;;;;;9.40;6.93;;;16.30;99.90;;;;;;5010217;28;20059;-71
2022/06/17 02:38:00;;;;;;;10.90;6.72;;;16.30;99.90;;;;;;5028066;28;20448;-71
2022/06/17 02:40:31;;;;;;;13.23;6.10;;;16.30;99.90;;;;;;5028745;28;20034;-71
2022/06/17 02:43:01;;;;;;;10.70;6.10;;;16.20;99.90;;;;;;5010394;28;20048;-71
2022/06/17 02:45:30;;;;;;;12.40;6.20;;;16.20;99.90;;;;;;5027972;28;20053;-71
2022/06/17 02:47:57;;;;;;;10.10;6.20;;;16.10;99.90;;;;;;5019780;28;20054;-71
2022/06/17 02:50:25;;;;;;;8.65;5.53;;;16.10;99.90;;;;;;5010739;28;20104;-71
2022/06/17 02:52:53;;;;;;;8.85;5.72;;;16.20;99.90;;;;;;4990334;28;20038;-71
2022/06/17 02:55:25;;;;;;;8.77;5.95;;;16.10;99.90;;;;;;5008766;28;20080;-72
2022/06/17 02:57:54;;;;;;;9.35;5.55;;;16.10;99.90;;;;;;5018946;28;20081;-71
2022/06/17 03:00:21;;;;;;;8.13;5.75;;;16.00;99.90;;;;;;5010532;28;20098;-72
2022/06/17 03:03:07;;;;;;;8.85;5.63;;;16.00;99.90;;;;;;5026537;28;20037;-72
2022/06/17 03:05:40;;;;;;;9.50;5.97;;;15.90;99.90;;;;;;5028201;28;20497;-73
2022/06/17 03:08:18;;;;;;;7.55;5.45;;;15.80;99.90;;;;;;5026909;28;20453;-72
2022/06/17 03:10:44;;;;;;;11.50;5.90;;;15.80;99.90;;;;;;5010130;28;20479;-71
2022/06/17 03:13:36;;;;;;;9.35;5.38;;;15.70;99.90;;;;;;5028134;28;20041;-71
2022/06/17 03:16:05;;;;;;;9.40;5.50;;;15.70;99.90;;;;;;5028115;28;20433;-71
2022/06/17 03:18:30;;;;;;;8.02;5.03;;;15.70;99.90;;;;;;5008745;28;20073;-71
2022/06/17 03:20:58;;;;;;;9.95;5.50;;;16.20;99.90;;;;;;5029872;28;20121;-71
2022/06/17 03:23:39;;;;;;;7.65;5.20;;;15.80;99.90;;;;;;5027897;28;20037;-71
2022/06/17 03:26:12;;;;;;;8.25;5.70;;;15.80;99.90;;;;;;5027463;28;20095;-71
2022/06/17 03:28:41;;;;;;;8.05;5.38;;;15.90;99.90;;;;;;5027407;28;20069;-72
2022/06/17 03:31:13;;;;;;;9.93;6.07;;;15.90;99.90;;;;;;5026835;28;20383;-72
2022/06/17 03:33:49;;;;;;;7.88;5.75;;;15.90;99.90;;;;;;5027494;28;20787;-72
2022/06/17 03:36:40;;;;;;;8.90;5.43;;;15.90;99.90;;;;;;5027464;28;20612;-71
2022/06/17 03:39:24;;;;;;;8.90;5.57;;;15.90;99.90;;;;;;5027282;28;20402;-71
2022/06/17 03:42:16;;;;;;;8.40;6.13;;;16.00;99.90;;;;;;5006775;28;20057;-71
2022/06/17 03:45:14;;;;;;;8.20;5.47;;;16.00;99.90;;;;;;4997014;28;20049;-71
2022/06/17 03:47:57;;;;;;;9.32;5.30;;;16.10;99.90;;;;;;4995514;28;20058;-71
2022/06/17 03:50:31;;;;;;;7.25;5.22;;;16.10;99.90;;;;;;5008654;28;20050;-72
2022/06/17 03:53:06;;;;;;;8.50;5.28;;;16.10;99.90;;;;;;5008843;28;20046;-72
2022/06/17 03:55:32;;;;;;;7.40;4.95;;;16.10;99.90;;;;;;5024813;28;20037;-72
2022/06/17 03:58:01;;;;;;;6.85;5.13;;;16.10;99.90;;;;;;5032021;28;20410;-71
2022/06/17 04:00:38;;;;;;;7.75;4.97;;;16.80;99.90;;;;;;5030299;28;20056;-71
2022/06/17 04:03:08;;;;;;;7.15;4.80;;;16.20;99.90;;;;;;5031331;28;20436;-71
2022/06/17 04:05:34;;;;;;;7.75;5.15;;;16.20;99.90;;;;;;5031157;28;20038;-71
2022/06/17 04:08:00;;;;;;;7.93;5.40;;;16.40;99.90;;;;;;5029812;28;20382;-72
2022/06/17 04:10:30;;;;;;;8.50;4.97;;;16.30;99.90;;;;;;5016435;28;20042;-72
2022/06/17 04:12:55;;;;;;;10.35;4.70;;;16.00;99.90;;;;;;5012056;28;20057;-72
2022/06/17 04:15:44;;;;;;;9.35;5.53;;;16.30;99.90;;;;;;5008268;28;20479;-72
2022/06/17 04:18:09;;;;;;;8.25;5.05;;;16.10;99.90;;;;;;5010949;28;20506;-72
2022/06/17 04:20:39;;;;;;;7.05;4.75;;;16.10;99.90;;;;;;5013747;28;20048;-72
2022/06/17 04:23:16;;;;;;;7.55;5.15;;;16.20;99.90;;;;;;5032811;28;20048;-72
2022/06/17 04:25:51;;;;;;;8.98;5.20;;;16.30;99.90;;;;;;5032377;28;20041;-72
2022/06/17 04:28:22;;;;;;;7.40;5.00;;;16.30;99.90;;;;;;5030075;28;20536;-72
2022/06/17 04:30:58;;;;;;;8.02;5.13;;;16.50;99.90;;;;;;5031127;28;20041;-72
2022/06/17 04:33:38;;;;;;;10.73;5.22;;;16.30;99.90;;;;;;5010951;28;20096;-72
2022/06/17 04:36:12;;;;;;;9.80;5.43;;;16.40;99.90;;;;;;5014500;28;20034;-72
2022/06/17 04:38:54;;;;;;;7.72;4.80;;;16.40;99.90;;;;;;5012448;28;20379;-72
2022/06/17 04:41:24;;;;;;;9.13;4.85;;;16.30;99.90;;;;;;5029867;28;20053;-72
2022/06/17 04:43:54;;;;;;;7.90;5.38;;;16.40;99.90;;;;;;5012714;28;20081;-72
2022/06/17 04:46:37;;;;;;;9.23;4.78;;;16.60;99.90;;;;;;5029687;28;20037;-72
2022/06/17 04:49:04;;;;;;;10.10;5.13;;;16.50;99.90;;;;;;5029377;28;20094;-72
2022/06/17 04:51:33;;;;;;;12.80;5.25;;;16.60;99.90;;;;;;5030120;28;20049;-72
2022/06/17 04:53:59;;;;;;;7.55;4.80;;;16.70;99.90;;;;;;5029677;28;20048;-72
2022/06/17 04:56:37;;;;;;;11.63;5.32;;;16.60;99.90;;;;;;5011203;28;20041;-72
2022/06/17 04:59:32;;;;;;;14.15;5.75;;;16.60;99.90;;;;;;5005054;28;20046;-73
2022/06/17 05:02:00;;;;;;;21.80;6.05;;;16.70;99.90;;;;;;5025753;28;20069;-73
2022/06/17 05:04:27;;;;;;;10.07;5.00;;;16.70;99.90;;;;;;5008876;28;20111;-72
2022/06/17 05:06:53;;;;;;;7.82;4.97;;;16.80;99.90;;;;;;5018272;28;20038;-72
2022/06/17 05:09:30;;;;;;;6.38;5.00;;;16.70;99.90;;;;;;5028547;28;20124;-72
2022/06/17 05:12:04;;;;;;;9.57;4.85;;;16.90;99.90;;;;;;5030199;28;20128;-72
2022/06/17 05:14:51;;;;;;;8.23;4.65;;;16.90;99.90;;;;;;5030646;28;20049;-72
2022/06/17 05:17:18;;;;;;;14.02;5.78;;;16.80;99.90;;;;;;5028715;28;20053;-72
2022/06/17 05:19:43;;;;;;;9.70;5.22;;;16.90;99.90;;;;;;5029053;28;20049;-73
2022/06/17 05:22:19;;;;;;;8.70;5.00;;;16.90;99.90;;;;;;5029250;28;20046;-73
2022/06/17 05:24:44;;;;;;;8.35;4.80;;;16.90;99.90;;;;;;5010866;28;20091;-72
2022/06/17 05:27:10;;;;;;;8.38;5.00;;;16.90;99.90;;;;;;5029350;28;20072;-73
2022/06/17 05:29:36;;;;;;;8.38;5.00;;;16.90;99.90;;;;;;5030094;28;20125;-72
2022/06/17 05:32:02;;;;;;;8.93;5.03;;;16.90;99.90;;;;;;5029825;28;20112;-71
2022/06/17 05:34:28;;;;;;;13.25;5.60;;;17.00;99.90;;;;;;5030381;28;20038;-71
2022/06/17 05:36:56;;;;;;;11.55;5.32;;;17.10;99.90;;;;;;5008149;28;20509;-71
2022/06/17 05:39:22;;;;;;;11.57;5.30;;;17.00;99.90;;;;;;5009167;28;20099;-71
2022/06/17 05:41:48;;;;;;;7.78;5.22;;;17.10;99.90;;;;;;5022299;28;20049;-71
2022/06/17 05:44:14;;;;;;;11.48;5.10;;;17.10;99.90;;;;;;5007775;28;20513;-72
2022/06/17 05:46:40;;;;;;;14.90;5.57;;;17.20;99.90;;;;;;5026556;28;20509;-71
2022/06/17 05:49:05;;;;;;;11.52;5.13;;;17.30;99.90;;;;;;5026037;28;20119;-71
2022/06/17 05:51:31;;;;;;;11.63;5.25;;;17.30;99.90;;;;;;5028452;28;20083;-72
2022/06/17 05:53:57;;;;;;;7.85;5.18;;;17.30;99.90;;;;;;5010595;28;20057;-72
2022/06/17 05:56:23;;;;;;;9.50;4.97;;;18.00;99.90;;;;;;5028802;28;20034;-72
2022/06/17 05:58:49;;;;;;;9.73;5.18;;;17.50;99.90;;;;;;5028237;28;20490;-73
2022/06/17 06:01:15;;;;;;;7.65;4.97;;;17.50;99.90;;;;;;5027745;28;20135;-72
2022/06/17 06:03:40;;;;;;;8.70;5.32;;;17.60;99.90;;;;;;5011120;28;20084;-72
2022/06/17 06:06:06;;;;;;;9.68;5.20;;;17.50;99.90;;;;;;5029859;28;20029;-72
2022/06/17 06:08:32;;;;;;;9.52;5.55;;;17.60;99.90;;;;;;4993411;28;20150;-72
2022/06/17 06:10:58;;;;;;;11.70;5.28;;;17.60;99.90;;;;;;5028545;28;20167;-73
2022/06/17 06:13:24;;;;;;;11.85;5.63;;;17.60;99.90;;;;;;5027679;28;20567;-71
2022/06/17 06:15:55;;;;;;;12.70;5.72;;;18.00;99.90;;;;;;5027119;28;20120;-72
2022/06/17 06:18:24;;;;;;;16.55;5.75;;;17.70;99.90;;;;;;5027416;28;20038;-72
2022/06/17 06:20:50;;;;;;;12.75;5.55;;;17.70;99.90;;;;;;5011014;28;20045;-72
2022/06/17 06:23:16;;;;;;;10.30;5.50;;;17.80;99.90;;;;;;5023835;28;20077;-71
2022/06/17 06:25:42;;;;;;;13.55;4.97;;;17.70;99.90;;;;;;5028081;28;20387;-72
2022/06/17 06:28:23;;;;;;;11.45;5.57;;;17.80;99.90;;;;;;5027103;28;20092;-71
2022/06/17 06:30:56;;;;;;;12.10;5.70;;;17.80;99.90;;;;;;5029403;28;20453;-72
2022/06/17 06:33:22;;;;;;;9.68;5.15;;;17.80;99.90;;;;;;5028120;28;20554;-72
2022/06/17 06:35:47;;;;;;;12.00;5.22;;;18.20;99.90;;;;;;5028369;28;20053;-72
2022/06/17 06:38:13;;;;;;;9.85;5.15;;;17.90;99.90;;;;;;5028402;28;20041;-72
2022/06/17 06:40:40;;;;;;;12.00;5.68;;;18.00;99.90;;;;;;4994077;28;20049;-72
2022/06/17 06:43:15;;;;;;;8.93;5.15;;;18.10;99.90;;;;;;5029601;28;20038;-71
2022/06/17 06:45:43;;;;;;;7.80;5.03;;;18.20;99.90;;;;;;5030349;28;20053;-72
2022/06/17 06:48:10;;;;;;;9.82;5.30;;;18.30;99.90;;;;;;5029328;28;20371;-71
2022/06/17 06:50:38;;;;;;;8.45;5.13;;;18.50;99.90;;;;;;5029671;28;20402;-72
2022/06/17 06:53:04;;;;;;;7.55;5.63;;;18.50;99.90;;;;;;5026962;28;20128;-72
2022/06/17 06:55:30;;;;;;;10.07;5.35;;;18.90;99.90;;;;;;5027392;28;20383;-73
2022/06/17 06:57:59;;;;;;;8.70;5.45;;;18.70;99.90;;;;;;5009933;28;20072;-73
2022/06/17 07:00:30;;;;;;;7.45;5.18;;;18.80;99.90;;;;;;5027655;28;20049;-73
2022/06/17 07:02:55;;;;;;;8.48;5.13;;;18.90;99.90;;;;;;5027190;28;20051;-73
2022/06/17 07:05:21;;;;;;;10.63;5.30;;;19.00;99.90;;;;;;5028223;28;20243;-73
2022/06/17 07:07:47;;;;;;;7.28;5.15;;;19.10;99.90;;;;;;5027521;28;20374;-73
2022/06/17 07:10:17;;;;;;;13.70;5.22;;;19.30;99.90;;;;;;5026910;28;20200;-73
2022/06/17 07:12:42;;;;;;;12.50;5.50;;;19.40;99.90;;;;;;5009376;28;20049;-73
2022/06/17 07:15:10;;;;;;;12.63;5.13;;;19.40;99.90;;;;;;5024758;28;20124;-73
2022/06/17 07:17:35;;;;;;;10.32;5.00;;;19.40;99.90;;;;;;5026395;28;20473;-73
2022/06/17 07:20:01;;;;;;;7.88;5.13;;;19.50;99.90;;;;;;5025947;28;20112;-72
2022/06/17 07:22:26;;;;;;;8.43;5.03;;;19.50;99.90;;;;;;5032133;28;20046;-79
2022/06/17 07:24:52;;;;;;;10.18;5.28;;;19.60;99.90;;;;;;5030345;28;20183;-78
2022/06/17 07:27:18;;;;;;;9.73;5.03;;;19.50;99.90;;;;;;4994876;28;20116;-79
2022/06/17 07:29:44;;;;;;;8.70;4.82;;;19.60;99.90;;;;;;5030618;28;20061;-78
2022/06/17 07:32:10;;;;;;;8.43;4.93;;;19.70;99.90;;;;;;5030684;28;20466;-79
2022/06/17 07:34:36;;;;;;;7.90;4.90;;;19.80;99.90;;;;;;5013367;28;20103;-78
2022/06/17 07:39:55;;;;;;;8.07;4.68;;;20.00;99.90;;;;;;5031085;28;20057;-78
2022/06/17 07:42:23;;;;;;;11.10;4.97;;;20.10;99.90;;;;;;5031012;28;20233;-76
2022/06/17 07:44:49;;;;;;;9.93;5.07;;;20.30;99.90;;;;;;5030984;28;20261;-78
2022/06/17 07:47:17;;;;;;;11.43;5.13;;;20.40;99.90;;;;;;5026400;28;20057;-78
2022/06/17 07:49:43;;;;;;;10.63;4.80;;;20.50;99.90;;;;;;5011534;28;20129;-77
2022/06/17 07:52:09;;;;;;;10.43;5.10;;;20.60;99.90;;;;;;5011630;28;20542;-78
2022/06/17 07:54:35;;;;;;;9.63;5.13;;;20.60;99.90;;;;;;4993320;28;20096;-78
2022/06/17 07:57:00;;;;;;;9.25;4.88;;;20.80;99.90;;;;;;5011345;28;20117;-79
2022/06/17 07:59:26;;;;;;;9.40;5.10;;;20.70;99.90;;;;;;5011609;28;20049;-78
2022/06/17 08:01:52;;;;;;;8.07;5.20;;;20.90;99.90;;;;;;5030349;28;20053;-79
2022/06/17 08:04:18;;;;;;;8.80;5.15;;;20.90;99.90;;;;;;5030451;28;20081;-76
2022/06/17 08:06:49;;;;;;;7.40;4.95;;;20.80;99.90;;;;;;5011868;28;20506;-79
2022/06/17 08:09:16;;;;;;;9.88;5.25;;;21.20;99.90;;;;;;5012879;28;20057;-78
2022/06/17 08:11:42;;;;;;;9.10;4.90;;;21.30;99.90;;;;;;5029983;28;20359;-78
2022/06/17 08:14:07;;;;;;;8.85;5.45;;;21.30;99.90;;;;;;5030983;28;20041;-76
2022/06/17 08:16:35;;;;;;;10.80;5.15;;;21.50;99.90;;;;;;5030045;28;20141;-77
2022/06/17 08:19:04;;;;;;;9.30;5.15;;;21.60;99.90;;;;;;4996775;28;20116;-76
2022/06/17 08:21:30;;;;;;;8.57;5.43;;;21.60;99.90;;;;;;5029849;28;20064;-78
2022/06/17 08:23:56;;;;;;;16.95;6.07;;;21.60;99.90;;;;;;5031012;28;20053;-79
2022/06/17 08:26:22;;;;;;;10.43;5.82;;;21.60;99.90;;;;;;5030109;28;20356;-79
2022/06/17 08:28:47;;;;;;;12.40;5.47;;;21.70;99.90;;;;;;5033611;28;20081;-79
2022/06/17 08:31:13;;;;;;;9.27;5.07;;;21.70;99.90;;;;;;5014059;28;20045;-79
2022/06/17 08:33:39;;;;;;;10.05;5.70;;;21.90;99.90;;;;;;5012094;28;20057;-79
2022/06/17 08:36:12;;;;;;;9.68;5.40;;;22.10;99.90;;;;;;5030105;28;20081;-80
2022/06/17 08:38:42;;;;;;;9.02;5.57;;;22.20;99.90;;;;;;5011022;28;20117;-80
2022/06/17 08:41:32;;;;;;;10.02;5.80;;;22.40;99.90;;;;;;5013520;28;20145;-80
2022/06/17 08:44:05;;;;;;;9.68;5.50;;;22.40;99.90;;;;;;5001696;28;20053;-78
2022/06/17 08:46:40;;;;;;;13.70;5.80;;;22.40;99.90;;;;;;5028444;28;20526;-79
2022/06/17 08:49:25;;;;;;;10.68;5.60;;;22.60;99.90;;;;;;4996527;28;20336;-79
2022/06/17 08:52:16;;;;;;;16.90;5.57;;;22.70;99.90;;;;;;5012136;28;20077;-79
2022/06/17 08:55:11;;;;;;;10.10;5.50;;;22.70;99.90;;;;;;5029240;28;20065;-79
2022/06/17 08:58:00;;;;;;;10.90;5.82;;;22.60;99.90;;;;;;5029752;28;20057;-80
2022/06/17 09:00:47;;;;;;;9.52;6.05;;;22.60;99.90;;;;;;5030620;28;20440;-80
2022/06/17 09:03:43;;;;;;;11.82;5.50;;;22.40;99.90;;;;;;5032826;28;20049;-80
2022/06/17 09:06:38;;;;;;;10.18;5.60;;;22.40;99.90;;;;;;5014536;28;20037;-80
2022/06/17 09:09:48;;;;;;;11.60;5.97;;;22.30;99.90;;;;;;5011726;28;20046;-80
2022/06/17 09:12:32;;;;;;;10.82;5.53;;;22.30;99.90;;;;;;4992159;28;20061;-81
2022/06/17 09:15:16;;;;;;;11.43;6.20;;;22.40;99.90;;;;;;5029095;28;20508;-73
2022/06/17 09:18:01;;;;;;;10.52;6.07;;;22.40;99.90;;;;;;5029166;28;20438;-72
2022/06/17 09:20:38;;;;;;;;;;;22.50;99.90;;;;;;5016946;28;20120;-72
2022/06/17 09:23:05;;;;;;;;;;;22.40;99.90;;;;;;5008717;28;19929;-72
2022/06/17 09:25:41;;;;;;;11.65;5.18;;;22.50;99.90;;;;;;5009143;28;19921;-72
2022/06/17 09:28:18;;;;;;;10.98;5.43;;;22.50;99.90;;;;;;4991091;28;20216;-72
2022/06/17 09:30:58;;;;;;;9.13;5.30;;;22.50;99.90;;;;;;5009532;28;20132;-72
2022/06/17 09:33:58;;;;;;;9.07;4.68;;;22.60;99.90;;;;;;5008657;28;20073;-71
2022/06/17 09:36:51;;;;;;;9.30;5.53;;;22.70;99.90;;;;;;4973140;28;20069;-71
2022/06/17 09:39:41;;;;;;;9.10;4.90;;;23.00;99.90;;;;;;5008564;28;20050;-71
2022/06/17 09:42:14;;;;;;;6.82;4.90;;;23.30;99.90;;;;;;4997041;28;20058;-73
2022/06/17 09:44:53;;;;;;;10.63;5.32;;;23.60;99.90;;;;;;5011262;28;20061;-71
2022/06/17 09:47:27;;;;;;;9.00;4.60;;;23.80;99.90;;;;;;5026004;28;20057;-71
2022/06/17 09:50:00;;;;;;;8.27;4.85;;;24.20;99.90;;;;;;5006748;28;20474;-71
2022/06/17 09:52:31;;;;;;;9.57;5.18;;;24.60;99.90;;;;;;5025433;28;20081;-71
2022/06/17 09:55:20;;;;;;;7.68;5.20;;;24.80;99.90;;;;;;5025523;28;20045;-71
2022/06/17 09:57:57;;;;;;;14.15;5.07;;;24.80;99.90;;;;;;5003503;28;20367;-71
2022/06/17 10:00:31;;;;;;;7.97;4.60;;;24.60;99.90;;;;;;4990533;28;20131;-71
2022/06/17 10:03:20;;;;;;;6.88;4.68;;;24.40;99.90;;;;;;5023718;28;20046;-71
2022/06/17 10:06:10;;;;;;;8.75;4.60;;;24.20;99.90;;;;;;5025291;28;20041;-73
2022/06/17 10:09:00;;;;;;;7.80;4.20;;;24.00;99.90;;;;;;5023790;28;20129;-73
2022/06/17 10:11:34;;;;;;;7.97;4.28;;;23.90;99.90;;;;;;5023339;28;20115;-73
2022/06/17 10:14:03;;;;;;;8.02;4.00;;;23.80;99.90;;;;;;5025406;28;20041;-72
2022/06/17 10:19:54;;;;;;;10.38;3.80;;;23.70;99.90;;;;;;5024415;28;20049;-72
2022/06/17 10:22:43;;;;;;;9.40;3.55;;;23.60;99.90;;;;;;5024439;28;20409;-71
2022/06/17 10:25:21;;;;;;;5.75;3.78;;;23.70;99.90;;;;;;5023894;28;20081;-72
2022/06/17 10:28:09;;;;;;;9.70;3.92;;;23.70;99.90;;;;;;5024826;28;20058;-72
2022/06/17 10:30:45;;;;;;;8.65;4.28;;;23.50;99.90;;;;;;5024748;28;20574;-75
2022/06/17 10:33:14;;;;;;;6.65;4.07;;;23.40;99.90;;;;;;5023494;28;20056;-72
2022/06/17 10:35:41;;;;;;;9.52;3.83;;;23.30;99.90;;;;;;5024630;28;20088;-72
2022/06/17 10:38:14;;;;;;;12.27;4.05;;;23.30;99.90;;;;;;5005738;28;20158;-71
2022/06/17 10:40:41;;;;;;;7.30;3.67;;;23.40;99.90;;;;;;4986775;28;20050;-71
2022/06/17 10:43:12;;;;;;;7.53;3.67;;;23.50;99.90;;;;;;5019854;28;20095;-72
2022/06/17 10:45:38;;;;;;;7.78;3.85;;;23.60;99.90;;;;;;5023121;28;20045;-71
2022/06/17 10:48:14;;;;;;;7.22;3.67;;;23.60;99.90;;;;;;5006042;28;20079;-71
2022/06/17 10:50:40;;;;;;;7.20;3.70;;;23.70;99.90;;;;;;5006174;28;20041;-71
2022/06/17 10:53:24;;;;;;;8.35;3.92;;;23.90;99.90;;;;;;5022861;28;20041;-71
2022/06/17 10:55:55;;;;;;;8.55;3.70;;;24.10;99.90;;;;;;5024331;28;20136;-73
2022/06/17 10:58:23;;;;;;;6.28;4.05;;;24.30;99.90;;;;;;5024471;28;20075;-73
2022/06/17 11:01:02;;;;;;;9.38;3.90;;;24.40;99.90;;;;;;5023230;28;20053;-72
2022/06/17 11:03:39;;;;;;;7.30;3.53;;;24.50;99.80;;;;;;5022989;28;20052;-73
2022/06/17 11:06:19;;;;;;;9.35;4.22;;;24.70;99.70;;;;;;5024329;28;20071;-73
2022/06/17 11:08:59;;;;;;;7.95;4.35;;;24.60;99.30;;;;;;5005456;28;20046;-72
2022/06/17 11:14:30;;;;;;;6.30;4.00;;;24.90;99.00;;;;;;5023371;28;20053;-72
2022/06/17 11:16:56;;;;;;;10.63;3.75;;;25.20;99.20;;;;;;5002390;28;20100;-73
2022/06/17 11:19:25;;;;;;;7.57;4.30;;;25.70;99.10;;;;;;5003985;28;20038;-73
2022/06/17 11:21:59;;;;;;;9.15;4.13;;;25.90;98.00;;;;;;4996902;28;20045;-72
2022/06/17 11:24:34;;;;;;;7.47;3.78;;;26.30;98.20;;;;;;5023153;28;20045;-72
2022/06/17 11:26:59;;;;;;;;;;;26.80;97.30;;;;;;5023887;28;20053;-72
2022/06/17 11:29:43;;;;;;;9.27;4.22;;;27.20;96.60;;;;;;5023030;28;19929;-73
2022/06/17 11:32:19;;;;;;;6.82;4.50;;;27.40;96.30;;;;;;5023287;28;20049;-73
2022/06/17 11:34:51;;;;;;;10.93;4.78;;;27.30;96.50;;;;;;5023318;28;20128;-72
2022/06/17 11:37:20;;;;;;;9.77;4.50;;;27.60;95.90;;;;;;5023008;28;20084;-72
2022/06/17 11:39:46;;;;;;;7.30;4.50;;;27.90;95.40;;;;;;5023516;28;20046;-73
2022/06/17 11:42:14;;;;;;;8.75;4.72;;;28.30;95.30;;;;;;5023237;28;20045;-72
2022/06/17 11:44:59;;;;;;;11.35;4.68;;;28.40;94.90;;;;;;5005929;28;20045;-72
2022/06/17 11:47:27;;;;;;;9.20;4.50;;;28.80;94.20;;;;;;5022738;28;20519;-72
2022/06/17 11:49:57;;;;;;;10.07;4.43;;;29.20;94.10;;;;;;5023592;28;20045;-73
2022/06/17 11:52:34;;;;;;;8.73;4.43;;;29.90;93.00;;;;;;5023123;28;20045;-73
2022/06/17 11:55:01;;;;;;;9.27;4.15;;;29.60;92.90;;;;;;5023530;28;20060;-72
2022/06/17 11:57:30;;;;;;;10.00;4.32;;;29.30;93.10;;;;;;5023310;28;20049;-72
2022/06/17 12:00:26;;;;;;;7.53;4.32;;;29.50;93.10;;;;;;4972879;28;20079;-73
2022/06/17 12:03:00;;;;;;;10.70;4.85;;;29.00;93.00;;;;;;5022700;28;20506;-72
2022/06/17 12:05:30;;;;;;;9.57;4.47;;;28.90;92.90;;;;;;5024095;28;20057;-72
2022/06/17 12:07:58;;;;;;;9.00;5.07;;;29.00;93.20;;;;;;5006664;28;20312;-72
2022/06/17 12:10:46;;;;;;;7.63;4.07;;;29.10;92.90;;;;;;5006751;28;20053;-71
2022/06/17 12:13:20;;;;;;;8.85;4.18;;;29.20;92.60;;;;;;5008469;28;20064;-71
2022/06/17 12:15:48;;;;;;;10.20;3.70;;;29.10;92.60;;;;;;5029794;28;20445;-71
2022/06/17 12:18:32;;;;;;;10.25;3.90;;;28.90;93.00;;;;;;5014118;28;20152;-71
2022/06/17 12:21:13;;;;;;;10.52;4.05;;;28.90;93.00;;;;;;5030851;28;20052;-71
2022/06/17 12:23:53;;;;;;;8.07;3.55;;;29.00;93.00;;;;;;5028443;28;20049;-71
2022/06/17 12:26:26;;;;;;;10.00;3.55;;;29.10;92.60;;;;;;5012935;28;20049;-71
2022/06/17 12:29:09;;;;;;;10.27;3.65;;;28.80;92.60;;;;;;5027553;28;20143;-72
2022/06/17 12:31:50;;;;;;;7.30;3.38;;;28.60;91.80;;;;;;5025504;28;20061;-85
2022/06/17 12:34:19;;;;;;;8.05;3.50;;;28.30;91.70;;;;;;5004422;28;20058;-74
2022/06/17 12:36:52;;;;;;;7.70;3.05;;;28.10;91.80;;;;;;5006754;28;20125;-74
2022/06/17 12:39:44;;;;;;;15.90;3.47;;;28.10;92.00;;;;;;4987916;28;20050;-74
2022/06/17 12:42:40;;;;;;;9.35;3.50;;;28.10;92.00;;;;;;4968965;28;20145;-74
2022/06/17 12:45:18;;;;;;;8.48;3.20;;;28.00;91.60;;;;;;4990797;28;20049;-75
2022/06/17 12:48:04;;;;;;;7.40;3.20;;;28.00;91.80;;;;;;5025548;28;20058;-75
2022/06/17 12:53:40;;;;;;;9.27;3.53;;;27.80;92.20;;;;;;5006717;28;20417;-74
2022/06/17 12:56:42;;;;;;;10.35;3.72;;;27.50;92.50;;;;;;5026594;28;20132;-74
2022/06/17 12:59:23;;;;;;;8.50;4.13;;;27.50;92.60;;;;;;4993804;28;20111;-75
2022/06/17 13:01:54;;;;;;;9.57;4.40;;;27.30;92.90;;;;;;5025570;28;20048;-74
2022/06/17 13:04:40;;;;;;;10.82;3.97;;;27.20;93.30;;;;;;5026342;28;20398;-74
2022/06/17 13:07:19;;;;;;;6.18;3.92;;;27.00;93.50;;;;;;5015266;28;20469;-71
2022/06/17 13:13:16;;;;;;;7.32;3.95;;;27.00;94.00;;;;;;5022677;28;20049;-71
2022/06/17 13:15:53;;;;;;;8.43;4.47;;;26.90;94.20;;;;;;5029188;28;20049;-72
2022/06/17 13:18:36;;;;;;;11.25;4.10;;;26.60;94.20;;;;;;4994280;28;20088;-73
2022/06/17 13:21:08;;;;;;;8.70;3.97;;;26.60;94.40;;;;;;5010695;28;20117;-71
2022/06/17 13:23:42;;;;;;;9.15;3.47;;;26.60;94.60;;;;;;5008965;28;20050;-70
2022/06/17 13:26:17;;;;;;;7.82;3.70;;;26.50;94.80;;;;;;5011205;28;20049;-71
2022/06/17 13:29:22;;;;;;;7.67;3.80;;;26.50;94.80;;;;;;5028372;28;20064;-71